Iona Mcallister — WDD4840 — position and weather

sailwx.info

Track history (hours):
 
Tides and Currents Weather Stations Pressure Air Temp Water Temp Dewpoint Dewpoint Depression Visibility Wind Speed Wind Dir Waves Ship Positions

Iona Mcallister

Owner: McAllister Towing & Transportation Co. Inc., Staten Island, NY. More information available from US FCC via Universal Licensing System and Coast Guard Vessel Documentation Center.

Last reported at 2017-Feb-21 12:30 UTC. Time now 2017-Feb-21 19:04 UTC.
Position N 41°37' W 071°24'.

Length 36 m; draft 3 m.

Type: Towing. MMSI: 367149890.

Date/timePositionNaut miles runAvg speedWind from/ knotsBaromVisibWave heightAir tempDewpointWater temp
2017-Feb-21 12:30N 41°37' W 071°24'1 0.5
2017-Feb-21 11:25N 41°36' W 071°24'0 0.1
2017-Feb-21 10:28N 41°36' W 071°24'1 0.3
2017-Feb-21 06:15N 41°35' W 071°24'0 0.0
2017-Feb-21 05:06N 41°35' W 071°24'0 0.0
2017-Feb-21 04:32N 41°35' W 071°24'0 0.0
2017-Feb-21 03:30N 41°35' W 071°24'0 0.0
2017-Feb-21 02:32N 41°35' W 071°24'0 0.0
2017-Feb-21 01:32N 41°35' W 071°24'0 0.0
2017-Feb-21 00:33N 41°35' W 071°24'1 0.0
2017-Feb-19 22:33N 41°35' W 071°24'1 0.3
2017-Feb-19 20:32N 41°36' W 071°23'10 7.5
2017-Feb-19 19:13N 41°41' W 071°12'2 2.2
2017-Feb-19 18:25N 41°42' W 071°11'1 0.8
2017-Feb-19 17:25N 41°42' W 071°11'0 0.0
2017-Feb-19 16:33N 41°42' W 071°11'0 0.0
2017-Feb-19 15:29N 41°42' W 071°11'0 0.0
2017-Feb-19 14:34N 41°42' W 071°11'2 1.6
2017-Feb-19 13:33N 41°40' W 071°12'2 1.5
2017-Feb-19 12:29N 41°42' W 071°11'0 0.1
2017-Feb-19 11:07N 41°42' W 071°11'0 0.2
2017-Feb-19 10:33N 41°42' W 071°11'0 0.0
2017-Feb-19 09:33N 41°42' W 071°11'0 0.0
2017-Feb-19 08:31N 41°42' W 071°11'0 0.0
2017-Feb-19 07:33N 41°42' W 071°11'0 0.0
2017-Feb-19 06:33N 41°42' W 071°11'0 0.0
2017-Feb-19 05:33N 41°42' W 071°11'0 0.0
2017-Feb-19 04:33N 41°42' W 071°11'0 0.0
2017-Feb-19 03:33N 41°42' W 071°11'0 0.0
2017-Feb-19 02:33N 41°42' W 071°11'0 0.0
2017-Feb-19 01:32N 41°42' W 071°11'0 0.0
2017-Feb-19 00:33N 41°42' W 071°11'0 0.0
2017-Feb-18 23:32N 41°42' W 071°11'0 0.0
2017-Feb-18 22:33N 41°42' W 071°11'0 0.0
2017-Feb-18 21:33N 41°42' W 071°11'0 0.0
2017-Feb-18 20:33N 41°42' W 071°11'7 1.4
2017-Feb-18 15:33N 41°42' W 071°20'7 7.2
2017-Feb-18 14:33N 41°49' W 071°24'0 0.0
2017-Feb-18 13:33N 41°49' W 071°24'0 0.0
2017-Feb-18 12:33N 41°49' W 071°24'2 1.6
2017-Feb-18 11:31N 41°47' W 071°23'0 0.1
2017-Feb-18 09:25N 41°47' W 071°23'0 0.0
2017-Feb-18 08:33N 41°47' W 071°23'0 0.0
2017-Feb-18 07:33N 41°47' W 071°23'0 0.0
2017-Feb-18 06:33N 41°47' W 071°23'0 0.0
2017-Feb-18 05:33N 41°47' W 071°23'0 0.0
2017-Feb-18 04:33N 41°47' W 071°23'0 0.1
2017-Feb-18 03:32N 41°47' W 071°23'1 0.3
2017-Feb-18 01:26N 41°48' W 071°23'0 0.1
2017-Feb-18 00:34N 41°48' W 071°23'1 0.8
2017-Feb-17 23:17N 41°49' W 071°24'0 0.0
2017-Feb-17 22:31N 41°49' W 071°24'0 0.0
2017-Feb-17 21:33N 41°49' W 071°24'0 0.0
2017-Feb-17 20:34N 41°49' W 071°24'2 2.0
2017-Feb-17 19:33N 41°47' W 071°23'8 8.2
2017-Feb-17 18:32N 41°39' W 071°19'6 6.4
2017-Feb-17 17:33N 41°42' W 071°11'1 0.8
2017-Feb-17 16:33N 41°41' W 071°12'0 0.0
2017-Feb-17 15:33N 41°41' W 071°12'1 0.3
2017-Feb-17 12:19N 41°42' W 071°11'0 0.0
2017-Feb-17 11:33N 41°42' W 071°11'0 0.0
2017-Feb-17 10:33N 41°42' W 071°11'0 0.0
2017-Feb-17 09:34N 41°42' W 071°11'0 0.0
2017-Feb-17 08:33N 41°42' W 071°11'0 0.0
2017-Feb-17 07:33N 41°42' W 071°11'0 0.0
2017-Feb-17 06:34N 41°42' W 071°11'0 0.0
2017-Feb-17 05:33N 41°42' W 071°11'0 0.0
2017-Feb-17 04:33N 41°42' W 071°11'0 0.0
2017-Feb-17 03:33N 41°42' W 071°11'0 0.0
2017-Feb-17 02:33N 41°42' W 071°11'0 0.0
2017-Feb-17 01:33N 41°42' W 071°11'11 5.6
2017-Feb-16 23:33N 41°35' W 071°23'2 1.5
2017-Feb-16 22:23N 41°37' W 071°24'0 0.0
2017-Feb-16 21:32N 41°37' W 071°24'0 0.0
2017-Feb-16 20:33N 41°37' W 071°24'0 0.0
2017-Feb-16 19:33N 41°37' W 071°24'0 0.0
2017-Feb-16 18:32N 41°37' W 071°24'0 0.0
2017-Feb-16 17:34N 41°37' W 071°24'0 0.0
2017-Feb-16 13:17N 41°37' W 071°24'0 0.0
2017-Feb-16 12:15N 41°37' W 071°24'2 1.0
2017-Feb-16 10:33N 41°35' W 071°24'0 0.3
2017-Feb-16 09:33N 41°35' W 071°24'0 0.0
2017-Feb-16 08:33N 41°35' W 071°24'0 0.0
2017-Feb-16 07:34N 41°35' W 071°24'0 0.0
2017-Feb-16 06:33N 41°35' W 071°24'0 0.0
2017-Feb-16 05:33N 41°35' W 071°24'0 0.0
2017-Feb-16 04:33N 41°35' W 071°24'0 0.0
2017-Feb-16 03:33N 41°35' W 071°24'0 0.0
2017-Feb-16 02:33N 41°35' W 071°24'5 4.8
2017-Feb-16 01:34N 41°40' W 071°22'8 8.2
2017-Feb-16 00:32N 41°48' W 071°23'1 1.1
2017-Feb-15 23:34N 41°49' W 071°24'0 0.0
2017-Feb-15 22:33N 41°49' W 071°24'0 0.0
2017-Feb-15 21:33N 41°49' W 071°24'0 0.0
2017-Feb-15 20:34N 41°49' W 071°24'0 0.0
2017-Feb-15 19:33N 41°49' W 071°24'0 0.0
2017-Feb-15 18:33N 41°49' W 071°24'2 1.2
2017-Feb-15 17:12N 41°47' W 071°23'0 0.6
2017-Feb-15 16:34N 41°47' W 071°23'2 2.1
2017-Feb-15 15:33N 41°49' W 071°24'0 0.0
2017-Feb-15 14:33N 41°49' W 071°24'0 0.0
2017-Feb-15 13:34N 41°49' W 071°24'2 0.3
2017-Feb-15 07:18N 41°47' W 071°23'5 6.6
2017-Feb-15 06:33N 41°43' W 071°20'  
Track history (hours):
 
Tides and Currents Weather Stations Pressure Air Temp Water Temp Dewpoint Dewpoint Depression Visibility Wind Speed Wind Dir Waves Ship Positions

Iona Mcallister

Owner: McAllister Towing & Transportation Co. Inc., Staten Island, NY. More information available from US FCC via Universal Licensing System and Coast Guard Vessel Documentation Center.

Last reported at 2017-Feb-21 12:30 UTC. Time now 2017-Feb-21 19:04 UTC.
Position N 41°37' W 071°24'.

Length 36 m; draft 3 m.

Type: Towing. MMSI: 367149890.

Date/timePositionNaut miles runAvg speedWind from/ knotsBaromVisibWave heightAir tempDewpointWater temp
2017-Feb-21 12:30N 41°37' W 071°24'1 0.5
2017-Feb-21 11:25N 41°36' W 071°24'0 0.1
2017-Feb-21 10:28N 41°36' W 071°24'1 0.3
2017-Feb-21 06:15N 41°35' W 071°24'0 0.0
2017-Feb-21 05:06N 41°35' W 071°24'0 0.0
2017-Feb-21 04:32N 41°35' W 071°24'0 0.0
2017-Feb-21 03:30N 41°35' W 071°24'0 0.0
2017-Feb-21 02:32N 41°35' W 071°24'0 0.0
2017-Feb-21 01:32N 41°35' W 071°24'0 0.0
2017-Feb-21 00:33N 41°35' W 071°24'1 0.0
2017-Feb-19 22:33N 41°35' W 071°24'1 0.3
2017-Feb-19 20:32N 41°36' W 071°23'10 7.5
2017-Feb-19 19:13N 41°41' W 071°12'2 2.2
2017-Feb-19 18:25N 41°42' W 071°11'1 0.8
2017-Feb-19 17:25N 41°42' W 071°11'0 0.0
2017-Feb-19 16:33N 41°42' W 071°11'0 0.0
2017-Feb-19 15:29N 41°42' W 071°11'0 0.0
2017-Feb-19 14:34N 41°42' W 071°11'2 1.6
2017-Feb-19 13:33N 41°40' W 071°12'2 1.5
2017-Feb-19 12:29N 41°42' W 071°11'0 0.1
2017-Feb-19 11:07N 41°42' W 071°11'0 0.2
2017-Feb-19 10:33N 41°42' W 071°11'0 0.0
2017-Feb-19 09:33N 41°42' W 071°11'0 0.0
2017-Feb-19 08:31N 41°42' W 071°11'0 0.0
2017-Feb-19 07:33N 41°42' W 071°11'0 0.0
2017-Feb-19 06:33N 41°42' W 071°11'0 0.0
2017-Feb-19 05:33N 41°42' W 071°11'0 0.0
2017-Feb-19 04:33N 41°42' W 071°11'0 0.0
2017-Feb-19 03:33N 41°42' W 071°11'0 0.0
2017-Feb-19 02:33N 41°42' W 071°11'0 0.0
2017-Feb-19 01:32N 41°42' W 071°11'0 0.0
2017-Feb-19 00:33N 41°42' W 071°11'0 0.0
2017-Feb-18 23:32N 41°42' W 071°11'0 0.0
2017-Feb-18 22:33N 41°42' W 071°11'0 0.0
2017-Feb-18 21:33N 41°42' W 071°11'0 0.0
2017-Feb-18 20:33N 41°42' W 071°11'7 1.4
2017-Feb-18 15:33N 41°42' W 071°20'7 7.2
2017-Feb-18 14:33N 41°49' W 071°24'0 0.0
2017-Feb-18 13:33N 41°49' W 071°24'0 0.0
2017-Feb-18 12:33N 41°49' W 071°24'2 1.6
2017-Feb-18 11:31N 41°47' W 071°23'0 0.1
2017-Feb-18 09:25N 41°47' W 071°23'0 0.0
2017-Feb-18 08:33N 41°47' W 071°23'0 0.0
2017-Feb-18 07:33N 41°47' W 071°23'0 0.0
2017-Feb-18 06:33N 41°47' W 071°23'0 0.0
2017-Feb-18 05:33N 41°47' W 071°23'0 0.0
2017-Feb-18 04:33N 41°47' W 071°23'0 0.1
2017-Feb-18 03:32N 41°47' W 071°23'1 0.3
2017-Feb-18 01:26N 41°48' W 071°23'0 0.1
2017-Feb-18 00:34N 41°48' W 071°23'1 0.8
2017-Feb-17 23:17N 41°49' W 071°24'0 0.0
2017-Feb-17 22:31N 41°49' W 071°24'0 0.0
2017-Feb-17 21:33N 41°49' W 071°24'0 0.0
2017-Feb-17 20:34N 41°49' W 071°24'2 2.0
2017-Feb-17 19:33N 41°47' W 071°23'8 8.2
2017-Feb-17 18:32N 41°39' W 071°19'6 6.4
2017-Feb-17 17:33N 41°42' W 071°11'1 0.8
2017-Feb-17 16:33N 41°41' W 071°12'0 0.0
2017-Feb-17 15:33N 41°41' W 071°12'1 0.3
2017-Feb-17 12:19N 41°42' W 071°11'0 0.0
2017-Feb-17 11:33N 41°42' W 071°11'0 0.0
2017-Feb-17 10:33N 41°42' W 071°11'0 0.0
2017-Feb-17 09:34N 41°42' W 071°11'0 0.0
2017-Feb-17 08:33N 41°42' W 071°11'0 0.0
2017-Feb-17 07:33N 41°42' W 071°11'0 0.0
2017-Feb-17 06:34N 41°42' W 071°11'0 0.0
2017-Feb-17 05:33N 41°42' W 071°11'0 0.0
2017-Feb-17 04:33N 41°42' W 071°11'0 0.0
2017-Feb-17 03:33N 41°42' W 071°11'0 0.0
2017-Feb-17 02:33N 41°42' W 071°11'0 0.0
2017-Feb-17 01:33N 41°42' W 071°11'11 5.6
2017-Feb-16 23:33N 41°35' W 071°23'2 1.5
2017-Feb-16 22:23N 41°37' W 071°24'0 0.0
2017-Feb-16 21:32N 41°37' W 071°24'0 0.0
2017-Feb-16 20:33N 41°37' W 071°24'0 0.0
2017-Feb-16 19:33N 41°37' W 071°24'0 0.0
2017-Feb-16 18:32N 41°37' W 071°24'0 0.0
2017-Feb-16 17:34N 41°37' W 071°24'0 0.0
2017-Feb-16 13:17N 41°37' W 071°24'0 0.0
2017-Feb-16 12:15N 41°37' W 071°24'2 1.0
2017-Feb-16 10:33N 41°35' W 071°24'0 0.3
2017-Feb-16 09:33N 41°35' W 071°24'0 0.0
2017-Feb-16 08:33N 41°35' W 071°24'0 0.0
2017-Feb-16 07:34N 41°35' W 071°24'0 0.0
2017-Feb-16 06:33N 41°35' W 071°24'0 0.0
2017-Feb-16 05:33N 41°35' W 071°24'0 0.0
2017-Feb-16 04:33N 41°35' W 071°24'0 0.0
2017-Feb-16 03:33N 41°35' W 071°24'0 0.0
2017-Feb-16 02:33N 41°35' W 071°24'5 4.8
2017-Feb-16 01:34N 41°40' W 071°22'8 8.2
2017-Feb-16 00:32N 41°48' W 071°23'1 1.1
2017-Feb-15 23:34N 41°49' W 071°24'0 0.0
2017-Feb-15 22:33N 41°49' W 071°24'0 0.0
2017-Feb-15 21:33N 41°49' W 071°24'0 0.0
2017-Feb-15 20:34N 41°49' W 071°24'0 0.0
2017-Feb-15 19:33N 41°49' W 071°24'0 0.0
2017-Feb-15 18:33N 41°49' W 071°24'2 1.2
2017-Feb-15 17:12N 41°47' W 071°23'0 0.6
2017-Feb-15 16:34N 41°47' W 071°23'2 2.1
2017-Feb-15 15:33N 41°49' W 071°24'0 0.0
2017-Feb-15 14:33N 41°49' W 071°24'0 0.0
2017-Feb-15 13:34N 41°49' W 071°24'2 0.3
2017-Feb-15 07:18N 41°47' W 071°23'5 6.6
2017-Feb-15 06:33N 41°43' W 071°20'  

Dump ship's entire track history